createdAt,value
2023-03-17T00:00:45.512Z,-1.70
2023-03-17T00:03:29.522Z,-1.73
2023-03-17T00:05:59.977Z,-1.73
2023-03-17T00:08:32.714Z,-1.69
2023-03-17T00:11:02.502Z,-1.67
2023-03-17T00:13:32.271Z,-1.66
2023-03-17T00:16:03.408Z,-1.66
2023-03-17T00:18:35.612Z,-1.64
2023-03-17T00:21:05.038Z,-1.62
2023-03-17T00:23:35.421Z,-1.60
2023-03-17T00:26:04.216Z,-1.58
2023-03-17T00:28:35.446Z,-1.58
2023-03-17T00:31:13.633Z,-1.58
2023-03-17T00:33:46.676Z,-1.54
2023-03-17T00:36:18.971Z,-1.51
2023-03-17T00:38:48.781Z,-1.48
2023-03-17T00:41:18.411Z,-1.44
2023-03-17T00:43:47.629Z,-1.44
2023-03-17T00:46:20.091Z,-1.43
2023-03-17T00:48:51.324Z,-1.41
2023-03-17T00:51:21.283Z,-1.39
2023-03-17T00:53:50.833Z,-1.36
2023-03-17T00:56:22.462Z,-1.32
2023-03-17T00:58:52.271Z,-1.29
2023-03-17T01:01:21.373Z,-1.28
2023-03-17T01:03:52.882Z,-1.25
2023-03-17T01:06:22.322Z,-1.23
2023-03-17T01:08:52.392Z,-1.26
2023-03-17T01:11:22.820Z,-1.25
2023-03-17T01:13:52.820Z,-1.23
2023-03-17T01:16:22.621Z,-1.23
2023-03-17T01:18:56.090Z,-1.21
2023-03-17T01:21:25.477Z,-1.18
2023-03-17T01:23:55.130Z,-1.17
2023-03-17T01:26:26.033Z,-1.16
2023-03-17T01:28:55.560Z,-1.14
2023-03-17T01:31:26.461Z,-1.12
2023-03-17T01:33:57.286Z,-1.11
2023-03-17T01:36:26.515Z,-1.09
2023-03-17T01:38:55.838Z,-1.07
2023-03-17T01:41:25.124Z,-1.05
2023-03-17T01:43:54.474Z,-1.04
2023-03-17T01:46:29.651Z,-1.04
2023-03-17T01:49:09.537Z,-1.02
2023-03-17T01:51:44.632Z,-1.00
2023-03-17T01:54:18.317Z,-1.01
2023-03-17T01:56:51.782Z,-0.99
2023-03-17T01:59:27.230Z,-0.98
2023-03-17T02:02:02.966Z,-0.98
2023-03-17T02:04:35.005Z,-0.97
2023-03-17T02:07:05.364Z,-0.97
2023-03-17T02:09:35.634Z,-0.95
2023-03-17T02:12:05.333Z,-0.95
2023-03-17T02:14:34.914Z,-0.98
2023-03-17T02:17:04.737Z,-0.99
2023-03-17T02:19:35.802Z,-0.99
2023-03-17T02:22:06.339Z,-0.98
2023-03-17T02:24:39.021Z,-0.97
2023-03-17T02:27:13.516Z,-0.95
2023-03-17T02:29:46.536Z,-0.95
2023-03-17T02:32:21.738Z,-0.94
2023-03-17T02:34:51.420Z,-0.93
2023-03-17T02:37:21.968Z,-0.93
2023-03-17T02:39:51.375Z,-0.90
2023-03-17T02:42:20.415Z,-0.90
2023-03-17T02:44:50.746Z,-0.90
2023-03-17T02:47:21.695Z,-0.90
2023-03-17T02:49:51.845Z,-0.88
2023-03-17T02:52:22.511Z,-0.87
2023-03-17T02:54:52.247Z,-0.88
2023-03-17T02:57:21.488Z,-0.86
2023-03-17T02:59:50.808Z,-0.86
2023-03-17T03:02:19.981Z,-0.84
2023-03-17T03:04:50.450Z,-0.83
2023-03-17T03:07:19.411Z,-0.82
2023-03-17T03:09:50.302Z,-0.84
2023-03-17T03:12:19.620Z,-0.83
2023-03-17T03:14:49.014Z,-0.83
2023-03-17T03:17:18.488Z,-0.81
2023-03-17T03:19:48.596Z,-0.80
2023-03-17T03:22:17.702Z,-0.78
2023-03-17T03:24:47.289Z,-0.77
2023-03-17T03:27:18.031Z,-0.76
2023-03-17T03:29:47.769Z,-0.75
2023-03-17T03:32:17.136Z,-0.73
2023-03-17T03:34:47.002Z,-0.72
2023-03-17T03:37:16.424Z,-0.71
2023-03-17T03:39:45.857Z,-0.70
2023-03-17T03:42:16.622Z,-0.69
2023-03-17T03:44:46.028Z,-0.68
2023-03-17T03:47:15.098Z,-0.66
2023-03-17T03:49:44.550Z,-0.65
2023-03-17T03:52:13.537Z,-0.64
2023-03-17T03:54:43.193Z,-0.62
2023-03-17T03:57:12.694Z,-0.60
2023-03-17T03:59:43.860Z,-0.60
2023-03-17T04:02:13.142Z,-0.59
2023-03-17T04:04:42.812Z,-0.58
2023-03-17T04:07:12.668Z,-0.57
2023-03-17T04:09:42.634Z,-0.54
2023-03-17T04:12:12.392Z,-0.53
2023-03-17T04:14:44.615Z,-0.52
2023-03-17T04:17:14.084Z,-0.54
2023-03-17T04:19:43.506Z,-0.53
2023-03-17T04:22:13.460Z,-0.52
2023-03-17T04:24:42.910Z,-0.50
2023-03-17T04:27:12.416Z,-0.48
2023-03-17T04:29:43.969Z,-0.47
2023-03-17T04:32:15.010Z,-0.46
2023-03-17T04:34:45.012Z,-0.44
2023-03-17T04:37:15.266Z,-0.42
2023-03-17T04:39:44.692Z,-0.41
2023-03-17T04:42:14.036Z,-0.40
2023-03-17T04:44:44.902Z,-0.39
2023-03-17T04:47:14.153Z,-0.37
2023-03-17T04:49:43.655Z,-0.36
2023-03-17T04:52:13.049Z,-0.35
2023-03-17T04:54:42.596Z,-0.34
2023-03-17T04:57:12.002Z,-0.32
2023-03-17T04:59:41.489Z,-0.31
2023-03-17T05:02:12.464Z,-0.30
2023-03-17T05:04:42.147Z,-0.30
2023-03-17T05:07:11.310Z,-0.29
2023-03-17T05:09:40.682Z,-0.27
2023-03-17T05:12:10.989Z,-0.26
2023-03-17T05:14:40.565Z,-0.24
2023-03-17T05:17:11.591Z,-0.24
2023-03-17T05:19:41.031Z,-0.21
2023-03-17T05:22:10.214Z,-0.21
2023-03-17T05:24:40.850Z,-0.18
2023-03-17T05:27:10.051Z,-0.16
2023-03-17T05:29:39.689Z,-0.15
2023-03-17T05:32:09.098Z,-0.12
2023-03-17T05:34:40.088Z,-0.13
2023-03-17T05:37:10.332Z,-0.10
2023-03-17T05:39:39.921Z,-0.07
2023-03-17T05:42:09.302Z,-0.06
2023-03-17T05:44:38.711Z,-0.04
2023-03-17T05:47:08.538Z,-0.03
2023-03-17T05:49:39.348Z,0.00
2023-03-17T05:52:08.955Z,0.03
2023-03-17T05:54:38.805Z,0.05
2023-03-17T05:57:08.005Z,0.09
2023-03-17T05:59:37.514Z,0.11
2023-03-17T06:02:06.813Z,0.15
2023-03-17T06:04:36.459Z,0.20
2023-03-17T06:07:07.419Z,0.23
2023-03-17T06:09:37.212Z,0.28
2023-03-17T06:12:06.940Z,0.33
2023-03-17T06:14:36.731Z,0.36
2023-03-17T06:17:06.385Z,0.39
2023-03-17T06:19:36.869Z,0.46
2023-03-17T06:22:07.435Z,0.49
2023-03-17T06:24:37.227Z,0.54
2023-03-17T06:27:06.446Z,0.60
2023-03-17T06:29:35.976Z,0.65
2023-03-17T06:32:19.523Z,0.74
2023-03-17T06:34:50.062Z,0.81
2023-03-17T06:37:21.384Z,0.87
2023-03-17T06:39:50.769Z,0.92
2023-03-17T06:42:20.198Z,0.97
2023-03-17T06:44:52.347Z,1.08
2023-03-17T06:47:23.037Z,1.16
2023-03-17T06:49:53.868Z,1.22
2023-03-17T06:52:24.317Z,1.31
2023-03-17T06:54:54.167Z,1.35
2023-03-17T06:57:23.667Z,1.40
2023-03-17T06:59:52.969Z,1.45
2023-03-17T07:02:23.046Z,1.51
2023-03-17T07:04:53.500Z,1.55
2023-03-17T07:07:25.616Z,1.61
2023-03-17T07:09:55.229Z,1.68
2023-03-17T07:12:24.325Z,1.73
2023-03-17T07:14:54.511Z,1.83
2023-03-17T07:17:23.957Z,1.87
2023-03-17T07:19:53.532Z,1.94
2023-03-17T07:22:24.081Z,2.02
2023-03-17T07:24:53.493Z,2.13
2023-03-17T07:27:25.450Z,2.21
2023-03-17T07:29:55.038Z,2.31
2023-03-17T07:32:24.746Z,2.40
2023-03-17T07:34:54.724Z,2.47
2023-03-17T07:37:26.764Z,2.58
2023-03-17T07:39:56.284Z,2.70
2023-03-17T07:42:25.380Z,2.75
2023-03-17T07:44:54.908Z,2.83
2023-03-17T07:47:23.960Z,2.90
2023-03-17T07:49:53.522Z,2.96
2023-03-17T07:52:22.716Z,2.98
2023-03-17T07:54:54.036Z,3.05
2023-03-17T07:57:23.503Z,3.10
2023-03-17T07:59:52.957Z,3.14
2023-03-17T08:02:22.524Z,3.18
2023-03-17T08:04:52.302Z,3.23
2023-03-17T08:07:22.643Z,3.30
2023-03-17T08:09:54.072Z,3.38
2023-03-17T08:12:23.411Z,3.45
2023-03-17T08:14:52.716Z,3.50
2023-03-17T08:17:21.805Z,3.58
2023-03-17T08:19:51.435Z,3.64
2023-03-17T08:22:20.616Z,3.73
2023-03-17T08:24:50.022Z,3.81
2023-03-17T08:27:21.639Z,3.86
2023-03-17T08:29:51.509Z,3.93
2023-03-17T08:32:20.831Z,4.01
2023-03-17T08:34:53.703Z,4.07
2023-03-17T08:37:24.765Z,4.16
2023-03-17T08:39:53.986Z,4.23
2023-03-17T08:42:24.649Z,4.30
2023-03-17T08:44:54.287Z,4.38
2023-03-17T08:47:23.587Z,4.45
2023-03-17T08:49:53.368Z,4.52
2023-03-17T08:52:22.622Z,4.61
2023-03-17T08:54:54.732Z,4.66
2023-03-17T08:57:25.925Z,4.69
2023-03-17T08:59:55.887Z,4.76
2023-03-17T09:02:25.067Z,4.79
2023-03-17T09:04:54.463Z,4.85
2023-03-17T09:07:23.529Z,4.92
2023-03-17T09:09:53.163Z,4.98
2023-03-17T09:12:22.475Z,5.06
2023-03-17T09:14:53.494Z,5.15
2023-03-17T09:17:22.826Z,5.21
2023-03-17T09:19:52.398Z,5.27
2023-03-17T09:22:21.833Z,5.34
2023-03-17T09:24:51.402Z,5.44
2023-03-17T09:27:21.012Z,5.54
2023-03-17T09:29:50.506Z,5.62
2023-03-17T09:32:21.231Z,5.72
2023-03-17T09:34:51.726Z,5.82
2023-03-17T09:37:21.425Z,5.92
2023-03-17T09:39:51.331Z,5.99
2023-03-17T09:42:36.508Z,6.09
2023-03-17T09:45:19.989Z,6.16
2023-03-17T09:48:12.339Z,6.24
2023-03-17T09:50:49.989Z,6.30
2023-03-17T09:53:22.880Z,6.36
2023-03-17T09:55:58.013Z,6.42
2023-03-17T09:58:32.272Z,6.48
2023-03-17T10:01:05.205Z,6.47
2023-03-17T10:03:37.723Z,6.53
2023-03-17T10:06:35.057Z,6.59
2023-03-17T10:09:26.210Z,6.62
2023-03-17T10:12:07.628Z,6.69
2023-03-17T10:14:55.730Z,6.74
2023-03-17T10:17:31.753Z,6.79
2023-03-17T10:20:10.605Z,6.87
2023-03-17T10:22:46.244Z,6.91
2023-03-17T10:25:17.788Z,6.97
2023-03-17T10:27:52.228Z,7.04
2023-03-17T10:30:23.769Z,7.13
2023-03-17T10:32:56.459Z,7.22
2023-03-17T10:35:28.044Z,7.28
2023-03-17T10:38:13.485Z,7.40
2023-03-17T10:40:45.457Z,7.45
2023-03-17T10:43:20.630Z,7.49
2023-03-17T10:46:00.138Z,7.55
2023-03-17T10:48:32.361Z,7.65
2023-03-17T10:51:09.280Z,7.72
2023-03-17T10:53:43.446Z,7.76
2023-03-17T10:56:23.606Z,7.77
2023-03-17T10:58:55.554Z,7.80
2023-03-17T11:01:31.140Z,7.82
2023-03-17T11:04:03.931Z,7.88
2023-03-17T11:06:39.394Z,7.93
2023-03-17T11:09:12.539Z,7.95
2023-03-17T11:11:47.383Z,8.01
2023-03-17T11:14:18.741Z,8.04
2023-03-17T11:16:55.678Z,8.09
2023-03-17T11:19:32.856Z,8.13
2023-03-17T11:22:11.843Z,8.16
2023-03-17T11:24:52.882Z,8.19
2023-03-17T11:27:31.709Z,8.24
2023-03-17T11:30:26.574Z,8.30
2023-03-17T11:33:01.061Z,8.35
2023-03-17T11:35:51.602Z,8.38
2023-03-17T11:38:26.038Z,8.46
2023-03-17T11:41:24.356Z,8.50
2023-03-17T11:44:05.811Z,8.56
2023-03-17T11:46:43.639Z,8.64
2023-03-17T11:49:16.058Z,8.71
2023-03-17T11:51:57.262Z,8.78
2023-03-17T11:54:37.507Z,8.80
2023-03-17T11:57:11.271Z,8.83
2023-03-17T11:59:46.561Z,8.88
2023-03-17T12:02:24.398Z,8.94
2023-03-17T12:04:58.367Z,9.03
2023-03-17T12:07:31.685Z,9.08
2023-03-17T12:10:11.679Z,9.15
2023-03-17T12:12:48.310Z,9.19
2023-03-17T12:15:26.777Z,9.24
2023-03-17T12:18:00.557Z,9.29
2023-03-17T12:20:35.056Z,9.32
2023-03-17T12:23:12.224Z,9.38
2023-03-17T12:25:51.048Z,9.43
2023-03-17T12:28:24.551Z,9.48
2023-03-17T12:31:01.816Z,9.52
2023-03-17T12:33:40.117Z,9.59
2023-03-17T12:36:14.850Z,9.61
2023-03-17T12:38:47.595Z,9.66
2023-03-17T12:41:43.791Z,9.65
2023-03-17T12:44:27.747Z,9.68
2023-03-17T12:47:31.812Z,9.71
2023-03-17T12:53:49.210Z,9.77
2023-03-17T12:56:27.540Z,9.83
2023-03-17T12:59:07.064Z,9.84
2023-03-17T13:01:43.238Z,9.81
2023-03-17T13:04:27.153Z,9.88
2023-03-17T13:07:08.854Z,9.90
2023-03-17T13:09:56.225Z,9.92
2023-03-17T13:12:58.715Z,9.93
2023-03-17T13:16:08.119Z,9.97
2023-03-17T13:18:53.452Z,10.02
2023-03-17T13:21:26.509Z,10.08
2023-03-17T13:23:59.170Z,10.09
2023-03-17T13:26:55.584Z,10.06
2023-03-17T13:29:39.836Z,10.11
2023-03-17T13:32:49.304Z,10.17
2023-03-17T13:35:29.142Z,10.24
2023-03-17T13:38:35.777Z,10.30
2023-03-17T13:41:33.102Z,10.46
2023-03-17T13:44:20.954Z,10.61
2023-03-17T13:46:55.243Z,10.86
2023-03-17T13:49:30.627Z,11.15
2023-03-17T13:52:09.769Z,11.42
2023-03-17T13:54:48.438Z,11.65
2023-03-17T13:57:28.097Z,11.89
2023-03-17T14:00:05.223Z,12.15
2023-03-17T14:02:41.115Z,12.49
2023-03-17T14:05:19.375Z,12.77
2023-03-17T14:07:57.436Z,13.04
2023-03-17T14:10:29.765Z,13.37
2023-03-17T14:13:04.528Z,13.65
2023-03-17T14:15:42.225Z,13.84
2023-03-17T14:18:18.523Z,14.13
2023-03-17T14:20:58.782Z,14.40
2023-03-17T14:23:31.146Z,14.58
2023-03-17T14:26:04.815Z,14.69
2023-03-17T14:28:36.057Z,14.82
2023-03-17T14:31:07.813Z,14.89
2023-03-17T14:33:41.854Z,14.95
2023-03-17T14:36:15.648Z,14.99
2023-03-17T14:38:50.458Z,15.08
2023-03-17T14:41:22.753Z,15.01
2023-03-17T14:43:54.469Z,15.01
2023-03-17T14:46:27.941Z,14.89
2023-03-17T14:49:03.023Z,14.75
2023-03-17T14:51:38.258Z,14.70
2023-03-17T14:54:17.268Z,14.54
2023-03-17T14:57:01.633Z,14.49
2023-03-17T14:59:36.259Z,14.30
2023-03-17T15:02:18.644Z,14.13
2023-03-17T15:04:55.336Z,13.97
2023-03-17T15:07:33.720Z,13.72
2023-03-17T15:10:05.935Z,13.60
2023-03-17T15:12:38.035Z,13.54
2023-03-17T15:15:18.952Z,13.32
2023-03-17T15:17:52.498Z,13.15
2023-03-17T15:20:23.815Z,13.01
2023-03-17T15:22:59.603Z,12.89
2023-03-17T15:25:35.657Z,12.79
2023-03-17T15:28:13.475Z,12.68
2023-03-17T15:30:47.498Z,12.55
2023-03-17T15:33:23.185Z,12.32
2023-03-17T15:35:54.041Z,12.27
2023-03-17T15:38:23.320Z,12.13
2023-03-17T15:40:52.755Z,12.00
2023-03-17T15:43:23.664Z,11.85
2023-03-17T15:45:59.287Z,11.77
2023-03-17T15:48:31.824Z,11.62
2023-03-17T15:51:04.912Z,11.50
2023-03-17T15:53:34.643Z,11.34
2023-03-17T15:56:04.006Z,11.22
2023-03-17T15:58:35.966Z,11.10
2023-03-17T16:01:06.483Z,11.06
2023-03-17T16:03:38.104Z,10.86
2023-03-17T16:06:16.902Z,10.67
2023-03-17T16:08:46.506Z,10.56
2023-03-17T16:11:19.162Z,10.47
2023-03-17T16:13:51.083Z,10.38
2023-03-17T16:16:24.841Z,10.26
2023-03-17T16:18:54.154Z,10.14
2023-03-17T16:21:25.924Z,10.07
2023-03-17T16:23:55.782Z,10.01
2023-03-17T16:26:25.093Z,9.90
2023-03-17T16:28:59.194Z,9.71
2023-03-17T16:31:38.897Z,9.65
2023-03-17T16:34:17.904Z,9.58
2023-03-17T16:36:50.411Z,9.53
2023-03-17T16:39:21.340Z,9.47
2023-03-17T16:41:52.137Z,9.33
2023-03-17T16:44:23.629Z,9.20
2023-03-17T16:46:53.103Z,9.10
2023-03-17T16:49:23.798Z,9.01
2023-03-17T16:51:54.638Z,8.93
2023-03-17T16:54:23.724Z,8.90
2023-03-17T16:56:53.160Z,8.81
2023-03-17T16:59:24.509Z,8.78
2023-03-17T17:01:54.988Z,8.65
2023-03-17T17:04:24.893Z,8.54
2023-03-17T17:06:56.744Z,8.54
2023-03-17T17:09:28.661Z,8.43
2023-03-17T17:11:58.774Z,8.37
2023-03-17T17:14:27.958Z,8.33
2023-03-17T17:16:57.531Z,8.23
2023-03-17T17:19:26.526Z,8.16
2023-03-17T17:21:57.984Z,8.08
2023-03-17T17:24:27.289Z,8.03
2023-03-17T17:26:56.890Z,7.94
2023-03-17T17:29:26.155Z,7.89
2023-03-17T17:31:58.335Z,7.81
2023-03-17T17:34:27.525Z,7.79
2023-03-17T17:36:58.800Z,7.72
2023-03-17T17:39:28.031Z,7.62
2023-03-17T17:41:57.330Z,7.57
2023-03-17T17:44:26.561Z,7.51
2023-03-17T17:46:55.953Z,7.49
2023-03-17T17:49:27.200Z,7.42
2023-03-17T17:51:58.143Z,7.35
2023-03-17T17:54:27.432Z,7.31
2023-03-17T17:56:56.707Z,7.27
2023-03-17T17:59:27.004Z,7.22
2023-03-17T18:01:59.892Z,7.19
2023-03-17T18:04:29.228Z,7.13
2023-03-17T18:07:00.054Z,7.06
2023-03-17T18:09:32.892Z,7.04
2023-03-17T18:12:03.064Z,6.97
2023-03-17T18:14:32.224Z,6.91
2023-03-17T18:17:01.964Z,6.85
2023-03-17T18:19:31.246Z,6.80
2023-03-17T18:22:02.418Z,6.80
2023-03-17T18:24:32.105Z,6.75
2023-03-17T18:27:03.867Z,6.72
2023-03-17T18:29:33.200Z,6.66
2023-03-17T18:32:06.067Z,6.66
2023-03-17T18:34:40.759Z,6.60
2023-03-17T18:37:13.885Z,6.57
2023-03-17T18:39:52.489Z,6.53
2023-03-17T18:42:30.503Z,6.47
2023-03-17T18:45:01.475Z,6.45
2023-03-17T18:47:36.621Z,6.42
2023-03-17T18:50:09.073Z,6.39
2023-03-17T18:52:44.953Z,6.37
2023-03-17T18:55:21.440Z,6.35
2023-03-17T18:57:58.079Z,6.26
2023-03-17T19:00:34.371Z,6.25
2023-03-17T19:03:09.944Z,6.20
2023-03-17T19:05:40.319Z,6.17
2023-03-17T19:08:17.978Z,6.10
2023-03-17T19:10:48.616Z,6.09
2023-03-17T19:13:19.308Z,6.03
2023-03-17T19:15:48.790Z,6.06
2023-03-17T19:18:18.866Z,6.02
2023-03-17T19:20:48.021Z,6.02
2023-03-17T19:23:21.324Z,6.02
2023-03-17T19:25:51.575Z,5.97
2023-03-17T19:28:21.938Z,5.99
2023-03-17T19:30:54.163Z,5.95
2023-03-17T19:33:24.162Z,5.92
2023-03-17T19:35:59.701Z,5.87
2023-03-17T19:38:31.288Z,5.86
2023-03-17T19:41:03.662Z,5.83
2023-03-17T19:43:41.288Z,5.80
2023-03-17T19:46:15.308Z,5.78
2023-03-17T19:48:45.529Z,5.75
2023-03-17T19:51:17.792Z,5.72
2023-03-17T19:53:50.807Z,5.69
2023-03-17T19:56:22.133Z,5.68
2023-03-17T19:58:52.580Z,5.62
2023-03-17T20:01:28.961Z,5.60
2023-03-17T20:03:59.412Z,5.58
2023-03-17T20:06:29.730Z,5.53
2023-03-17T20:09:01.079Z,5.49
2023-03-17T20:11:34.418Z,5.46
2023-03-17T20:14:08.040Z,5.45
2023-03-17T20:16:37.712Z,5.46
2023-03-17T20:19:08.316Z,5.46
2023-03-17T20:21:39.402Z,5.41
2023-03-17T20:24:14.633Z,5.36
2023-03-17T20:26:47.127Z,5.32
2023-03-17T20:29:18.260Z,5.30
2023-03-17T20:31:48.381Z,5.30
2023-03-17T20:34:18.652Z,5.26
2023-03-17T20:36:49.926Z,5.27
2023-03-17T20:39:21.517Z,5.20
2023-03-17T20:41:52.578Z,5.14
2023-03-17T20:44:25.435Z,5.12
2023-03-17T20:46:55.063Z,5.07
2023-03-17T20:49:31.005Z,5.10
2023-03-17T20:52:03.187Z,5.06
2023-03-17T20:54:37.776Z,5.07
2023-03-17T20:57:07.344Z,5.07
2023-03-17T20:59:37.392Z,5.06
2023-03-17T21:02:15.143Z,5.03
2023-03-17T21:04:49.032Z,4.99
2023-03-17T21:07:21.156Z,4.95
2023-03-17T21:09:56.455Z,4.95
2023-03-17T21:12:28.080Z,4.95
2023-03-17T21:15:01.729Z,4.90
2023-03-17T21:17:36.614Z,4.90
2023-03-17T21:20:09.640Z,4.87
2023-03-17T21:22:41.326Z,4.85
2023-03-17T21:25:13.553Z,4.84
2023-03-17T21:27:46.699Z,4.83
2023-03-17T21:30:17.945Z,4.84
2023-03-17T21:32:48.851Z,4.82
2023-03-17T21:35:18.633Z,4.81
2023-03-17T21:37:48.102Z,4.82
2023-03-17T21:40:23.629Z,4.83
2023-03-17T21:42:52.983Z,4.80
2023-03-17T21:45:25.993Z,4.78
2023-03-17T21:47:58.925Z,4.81
2023-03-17T21:50:29.176Z,4.81
2023-03-17T21:53:00.879Z,4.80
2023-03-17T21:55:35.902Z,4.79
2023-03-17T21:58:08.515Z,4.78
2023-03-17T22:00:45.202Z,4.80
2023-03-17T22:03:14.973Z,4.83
2023-03-17T22:05:47.189Z,4.81
2023-03-17T22:08:16.456Z,4.83
2023-03-17T22:10:47.220Z,4.81
2023-03-17T22:13:16.568Z,4.80
2023-03-17T22:15:46.132Z,4.76
2023-03-17T22:18:18.413Z,4.79
2023-03-17T22:20:47.854Z,4.78
2023-03-17T22:23:17.049Z,4.76
2023-03-17T22:25:47.857Z,4.77
2023-03-17T22:28:18.912Z,4.77
2023-03-17T22:30:49.254Z,4.75
2023-03-17T22:33:18.621Z,4.77
2023-03-17T22:35:48.074Z,4.73
2023-03-17T22:38:17.952Z,4.73
2023-03-17T22:40:48.736Z,4.70
2023-03-17T22:43:17.949Z,4.72
2023-03-17T22:45:48.615Z,4.69
2023-03-17T22:48:17.703Z,4.70
2023-03-17T22:50:46.982Z,4.68
2023-03-17T22:53:16.070Z,4.68
2023-03-17T22:55:47.645Z,4.67
2023-03-17T22:58:16.802Z,4.65
2023-03-17T23:00:47.809Z,4.63
2023-03-17T23:03:17.393Z,4.61
2023-03-17T23:05:48.042Z,4.57
2023-03-17T23:08:17.526Z,4.62
2023-03-17T23:10:50.273Z,4.60
2023-03-17T23:13:20.929Z,4.57
2023-03-17T23:15:51.244Z,4.57
2023-03-17T23:18:20.348Z,4.57
2023-03-17T23:20:49.798Z,4.60
2023-03-17T23:23:19.996Z,4.57
2023-03-17T23:25:51.998Z,4.55
2023-03-17T23:28:21.539Z,4.53
2023-03-17T23:30:51.175Z,4.53
2023-03-17T23:33:22.833Z,4.52
2023-03-17T23:35:52.896Z,4.53
2023-03-17T23:38:22.718Z,4.56
2023-03-17T23:40:56.740Z,4.55
2023-03-17T23:43:27.537Z,4.57
2023-03-17T23:45:56.930Z,4.59
2023-03-17T23:48:26.064Z,4.59
2023-03-17T23:50:55.758Z,4.59
2023-03-17T23:53:26.438Z,4.56
2023-03-17T23:56:00.056Z,4.55
2023-03-17T23:58:29.279Z,4.54
